Time;durP1;ratioP1;P1;durP2;ratioP2;P2;SDS_P1;SDS_P2;PMS_P1;PMS_P2;Temp;Humidity;BMP_temperature;BMP_pressure;BME280_temperature;BME280_humidity;BME280_pressure;Samples;Min_cycle;Max_cycle;Signal;HPM_P1;HPM_P2
2021/10/05 00:01:47;;;;;;;10.23;7.20;;;;;;;18.16;35.66;100924.98;1733005;80;21491;-40
2021/10/05 00:04:13;;;;;;;9.28;7.55;;;;;;;18.09;35.75;100923.53;1742886;79;21211;-40
2021/10/05 00:06:40;;;;;;;10.98;7.87;;;;;;;18.04;35.86;100930.85;1751595;80;21083;-41
2021/10/05 00:09:06;;;;;;;10.08;7.70;;;;;;;17.99;35.95;100931.04;1751023;80;21073;-41
2021/10/05 00:11:32;;;;;;;10.82;7.47;;;;;;;17.99;35.98;100935.52;1747494;79;21484;-41
2021/10/05 00:13:59;;;;;;;13.40;7.30;;;;;;;17.96;36.07;100935.16;1740124;79;21044;-40
2021/10/05 00:16:26;;;;;;;13.78;8.55;;;;;;;17.93;36.11;100925.97;1735476;80;21782;-40
2021/10/05 00:18:52;;;;;;;11.80;8.63;;;;;;;17.93;36.15;100927.77;1726502;81;21054;-41
2021/10/05 00:21:18;;;;;;;13.95;8.65;;;;;;;17.91;36.17;100926.98;1735420;80;21011;-40
2021/10/05 00:23:45;;;;;;;12.70;9.15;;;;;;;17.86;36.25;100919.63;1732623;79;21024;-41
2021/10/05 00:26:11;;;;;;;13.78;8.80;;;;;;;17.83;36.31;100928.12;1718419;82;20975;-40
2021/10/05 00:28:38;;;;;;;12.20;8.93;;;;;;;17.81;36.36;100925.13;1743524;80;21107;-40
2021/10/05 00:31:04;;;;;;;14.07;9.13;;;;;;;17.77;36.40;100928.39;1758603;80;20975;-41
2021/10/05 00:33:31;;;;;;;14.70;8.18;;;;;;;17.75;36.47;100930.27;1747915;80;21114;-40
2021/10/05 00:35:57;;;;;;;14.65;9.98;;;;;;;17.72;36.52;100930.39;1754037;80;20992;-40
2021/10/05 00:38:23;;;;;;;12.00;8.83;;;;;;;17.72;36.56;100934.82;1712358;79;20923;-41
2021/10/05 00:40:50;;;;;;;12.37;8.98;;;;;;;17.72;36.58;100929.50;1765314;79;21149;-41
2021/10/05 00:43:17;;;;;;;15.05;9.35;;;;;;;17.68;36.65;100936.75;1764444;78;21490;-40
2021/10/05 00:45:43;;;;;;;15.13;9.48;;;;;;;17.66;36.66;100938.61;1735727;79;21083;-41
2021/10/05 00:48:09;;;;;;;15.53;9.50;;;;;;;17.63;36.70;100939.63;1755440;78;22023;-40
2021/10/05 00:50:36;;;;;;;17.37;9.45;;;;;;;17.60;36.79;100946.84;1757955;78;21008;-41
2021/10/05 00:53:02;;;;;;;14.85;10.18;;;;;;;17.56;36.86;100946.58;1717341;80;21589;-42
2021/10/05 00:55:29;;;;;;;14.98;9.25;;;;;;;17.54;36.91;100941.79;1706486;80;20983;-41
2021/10/05 00:57:55;;;;;;;18.75;9.38;;;;;;;17.51;36.95;100948.09;1742475;79;21585;-40
2021/10/05 01:00:24;;;;;;;17.85;9.20;;;;;;;17.47;37.02;100939.84;1760987;79;21074;-41
2021/10/05 01:02:51;;;;;;;14.43;9.03;;;;;;;17.43;37.09;100945.76;1765898;80;21634;-40
2021/10/05 01:05:17;;;;;;;11.50;8.73;;;;;;;17.43;37.14;100950.19;1697526;82;21066;-40
2021/10/05 01:07:49;;;;;;;13.90;8.93;;;;;;;17.41;37.17;100950.25;1733465;79;21584;-40
2021/10/05 01:10:17;;;;;;;15.88;8.58;;;;;;;17.42;37.16;100948.48;1704677;81;21133;-40
2021/10/05 01:12:48;;;;;;;16.50;8.73;;;;;;;17.42;37.18;100951.14;1710890;82;21079;-40
2021/10/05 01:15:19;;;;;;;13.53;9.18;;;;;;;17.44;37.17;100955.92;1715601;81;20972;-40
2021/10/05 01:17:46;;;;;;;11.18;8.25;;;;;;;17.44;37.18;100947.47;1705783;81;21198;-40
2021/10/05 01:20:13;;;;;;;15.63;8.63;;;;;;;17.44;37.22;100946.61;1737902;80;21098;-40
2021/10/05 01:22:39;;;;;;;14.58;8.48;;;;;;;17.41;37.27;100948.92;1757865;80;20976;-40
2021/10/05 01:25:11;;;;;;;12.28;7.70;;;;;;;17.38;37.31;100949.06;1726296;80;21101;-40
2021/10/05 01:27:43;;;;;;;11.10;8.08;;;;;;;17.36;37.37;100957.55;1761946;79;21028;-40
2021/10/05 01:30:10;;;;;;;11.85;8.65;;;;;;;17.33;37.41;100956.37;1760430;80;21084;-40
2021/10/05 01:32:37;;;;;;;10.85;8.48;;;;;;;17.34;37.43;100965.20;1741700;80;21485;-40
2021/10/05 01:35:05;;;;;;;12.58;8.35;;;;;;;17.31;37.48;100961.33;1769001;79;21052;-40
2021/10/05 01:37:31;;;;;;;12.73;8.33;;;;;;;17.27;37.55;100967.24;1752801;78;21138;-40
2021/10/05 01:39:57;;;;;;;14.70;8.25;;;;;;;17.26;37.57;100965.50;1722868;81;21146;-40
2021/10/05 01:42:24;;;;;;;9.68;8.35;;;;;;;17.23;37.65;100961.63;1735968;81;21806;-40
2021/10/05 01:44:51;;;;;;;12.75;8.00;;;;;;;17.20;37.70;100964.42;1727888;82;21214;-40
2021/10/05 01:47:18;;;;;;;13.72;8.55;;;;;;;17.16;37.75;100960.13;1753379;79;20951;-40
2021/10/05 01:49:44;;;;;;;10.55;8.28;;;;;;;17.14;37.80;100960.67;1738715;81;21168;-40
2021/10/05 01:52:10;;;;;;;14.30;9.45;;;;;;;17.09;37.85;100959.03;1719067;81;21572;-40
2021/10/05 01:54:37;;;;;;;12.75;8.33;;;;;;;17.08;37.91;100963.11;1741270;81;21142;-40
2021/10/05 01:57:04;;;;;;;11.85;8.20;;;;;;;17.04;37.96;100964.99;1735697;80;21420;-40
2021/10/05 01:59:30;;;;;;;10.38;7.97;;;;;;;17.03;37.98;100971.26;1757366;80;20964;-40
2021/10/05 02:01:57;;;;;;;11.33;8.08;;;;;;;17.00;38.03;100967.85;1731172;79;21729;-40
2021/10/05 02:04:23;;;;;;;14.50;8.73;;;;;;;16.97;38.09;100976.80;1720715;80;21044;-40
2021/10/05 02:06:49;;;;;;;10.85;8.35;;;;;;;16.95;38.11;100975.14;1748984;80;21115;-41
2021/10/05 02:09:16;;;;;;;10.58;8.35;;;;;;;16.93;38.15;100979.19;1697135;81;20979;-40
2021/10/05 02:11:42;;;;;;;10.35;7.75;;;;;;;16.92;38.19;100981.89;1734463;79;20956;-40
2021/10/05 02:14:10;;;;;;;11.08;8.00;;;;;;;16.88;38.22;100978.02;1728817;81;21105;-40
2021/10/05 02:16:36;;;;;;;11.03;7.87;;;;;;;16.85;38.30;100978.59;1725295;81;20976;-40
2021/10/05 02:19:05;;;;;;;14.63;8.50;;;;;;;16.82;38.36;100983.52;1730837;81;21165;-40
2021/10/05 02:21:34;;;;;;;10.72;8.58;;;;;;;16.80;38.39;100984.52;1757704;79;20951;-40
2021/10/05 02:26:46;;;;;;;11.08;8.98;;;;;;;16.77;38.48;100987.28;1741362;79;21025;-40
2021/10/05 02:29:12;;;;;;;11.18;8.40;;;;;;;16.74;38.54;100994.89;1756783;80;21546;-40
2021/10/05 02:31:38;;;;;;;10.53;8.38;;;;;;;16.70;38.60;100991.95;1758365;80;21448;-40
2021/10/05 02:34:05;;;;;;;12.00;9.13;;;;;;;16.67;38.65;100992.92;1744556;80;21090;-40
2021/10/05 02:36:31;;;;;;;15.93;9.30;;;;;;;16.65;38.69;100994.77;1766619;78;21078;-40
2021/10/05 02:38:57;;;;;;;12.20;9.00;;;;;;;16.64;38.72;100996.16;1758918;80;21083;-40
2021/10/05 02:41:24;;;;;;;12.28;8.48;;;;;;;16.62;38.77;100997.53;1761246;79;21024;-40
2021/10/05 02:43:50;;;;;;;13.43;8.90;;;;;;;16.59;38.80;100996.31;1755660;80;21458;-40
2021/10/05 02:46:17;;;;;;;11.43;9.08;;;;;;;16.58;38.81;100993.73;1743931;78;21019;-40
2021/10/05 02:48:43;;;;;;;13.15;9.15;;;;;;;16.57;38.86;100999.48;1757882;79;21442;-40
2021/10/05 02:51:10;;;;;;;10.80;8.45;;;;;;;16.56;38.86;101000.44;1754335;80;21169;-40
2021/10/05 02:53:36;;;;;;;11.43;8.68;;;;;;;16.55;38.89;101005.33;1732799;80;21451;-40
2021/10/05 02:56:02;;;;;;;12.82;8.48;;;;;;;16.57;38.87;101010.59;1712797;83;21212;-40
2021/10/05 02:58:29;;;;;;;13.35;8.23;;;;;;;16.57;38.87;101007.94;1716004;82;22132;-40
2021/10/05 03:00:55;;;;;;;11.63;9.38;;;;;;;16.58;38.88;101009.21;1682257;81;20992;-40
2021/10/05 03:03:22;;;;;;;11.93;8.93;;;;;;;16.58;38.91;101018.52;1729817;81;20979;-41
2021/10/05 03:05:48;;;;;;;12.33;9.58;;;;;;;16.55;38.94;101016.42;1729572;80;21268;-40
2021/10/05 03:08:15;;;;;;;12.78;9.38;;;;;;;16.51;38.98;101015.67;1743851;79;22567;-41
2021/10/05 03:10:41;;;;;;;13.62;8.90;;;;;;;16.48;39.04;101013.98;1704763;80;21123;-40
2021/10/05 03:13:07;;;;;;;14.23;9.33;;;;;;;16.46;39.06;101013.64;1746752;79;21953;-40
2021/10/05 03:15:34;;;;;;;14.60;9.75;;;;;;;16.44;39.10;101010.14;1719476;81;21149;-40
2021/10/05 03:18:01;;;;;;;14.23;9.38;;;;;;;16.43;39.15;101008.42;1735433;81;21540;-40
2021/10/05 03:20:27;;;;;;;14.10;9.20;;;;;;;16.43;39.17;101004.45;1734182;81;21111;-43
2021/10/05 03:22:53;;;;;;;12.85;8.70;;;;;;;16.40;39.22;101012.52;1725530;81;21058;-39
2021/10/05 03:25:20;;;;;;;11.48;8.93;;;;;;;16.38;39.26;101009.05;1747211;80;22252;-40
2021/10/05 03:27:46;;;;;;;14.90;9.13;;;;;;;16.35;39.27;101013.52;1755730;80;21006;-42
2021/10/05 03:30:13;;;;;;;10.93;9.15;;;;;;;16.35;39.28;101014.86;1756289;80;21042;-41
2021/10/05 03:32:41;;;;;;;10.23;8.93;;;;;;;16.38;39.28;101019.68;1746294;78;21125;-42
2021/10/05 03:35:08;;;;;;;14.23;9.48;;;;;;;16.37;39.27;101013.48;1741421;80;20983;-41
2021/10/05 03:37:34;;;;;;;13.05;9.45;;;;;;;16.37;39.29;101017.45;1770694;78;20961;-41
2021/10/05 03:40:01;;;;;;;14.65;8.60;;;;;;;16.34;39.31;101018.45;1761114;78;21451;-41
2021/10/05 03:42:27;;;;;;;14.83;9.08;;;;;;;16.32;39.38;101019.41;1741817;80;20952;-41
2021/10/05 03:44:53;;;;;;;14.58;9.48;;;;;;;16.28;39.42;101017.80;1755786;80;21091;-41
2021/10/05 03:47:20;;;;;;;14.53;9.60;;;;;;;16.26;39.44;101021.83;1739449;78;21933;-41
2021/10/05 03:49:46;;;;;;;12.82;9.28;;;;;;;16.26;39.49;101019.17;1734131;79;21124;-41
2021/10/05 03:52:12;;;;;;;13.95;9.28;;;;;;;16.27;39.52;101017.38;1707038;80;21133;-41
2021/10/05 03:54:39;;;;;;;16.20;9.80;;;;;;;16.27;39.54;101022.69;1726991;80;21115;-41
2021/10/05 03:57:05;;;;;;;13.55;9.35;;;;;;;16.27;39.52;101028.89;1747213;78;21185;-41
2021/10/05 03:59:32;;;;;;;15.00;9.18;;;;;;;16.27;39.54;101026.23;1752363;78;21518;-41
2021/10/05 04:01:59;;;;;;;14.87;9.78;;;;;;;16.28;39.54;101025.76;1703438;80;21120;-41
2021/10/05 04:04:25;;;;;;;13.90;9.80;;;;;;;16.27;39.55;101028.89;1671337;83;21726;-41
2021/10/05 04:06:52;;;;;;;11.97;9.35;;;;;;;16.25;39.58;101025.86;1704883;82;21091;-42
2021/10/05 04:09:18;;;;;;;14.28;9.15;;;;;;;16.21;39.63;101018.46;1723728;80;21611;-42
2021/10/05 04:11:45;;;;;;;13.08;9.38;;;;;;;16.22;39.64;101022.83;1734021;81;20980;-40
2021/10/05 04:14:11;;;;;;;15.50;9.10;;;;;;;16.21;39.66;101023.77;1730594;80;21487;-41
2021/10/05 04:16:38;;;;;;;14.38;9.15;;;;;;;16.21;39.68;101025.10;1705088;80;21348;-41
2021/10/05 04:19:04;;;;;;;16.50;9.55;;;;;;;16.21;39.68;101026.43;1756859;80;20959;-41
2021/10/05 04:21:31;;;;;;;14.95;9.38;;;;;;;16.22;39.67;101029.47;1749452;80;21742;-40
2021/10/05 04:23:57;;;;;;;17.90;10.88;;;;;;;16.23;39.68;101032.55;1728590;80;22032;-40
2021/10/05 04:26:24;;;;;;;13.40;9.83;;;;;;;16.24;39.66;101040.94;1753228;80;21000;-41
2021/10/05 04:28:50;;;;;;;18.07;11.18;;;;;;;16.26;39.65;101036.44;1732558;79;21954;-42
2021/10/05 04:31:16;;;;;;;21.60;12.78;;;;;;;16.29;39.61;101045.62;1705307;82;21564;-40
2021/10/05 04:33:43;;;;;;;18.73;11.70;;;;;;;16.30;39.60;101051.33;1715506;80;21104;-40
2021/10/05 04:36:09;;;;;;;15.80;10.25;;;;;;;16.31;39.57;101050.89;1758378;78;21508;-41
2021/10/05 04:38:35;;;;;;;18.00;10.50;;;;;;;16.29;39.60;101051.38;1757018;80;21029;-41
2021/10/05 04:41:02;;;;;;;17.55;11.25;;;;;;;16.28;39.62;101053.65;1763292;80;21058;-40
2021/10/05 04:43:28;;;;;;;19.00;10.75;;;;;;;16.30;39.60;101050.00;1754502;79;21177;-42
2021/10/05 04:45:55;;;;;;;14.50;10.30;;;;;;;16.31;39.59;101056.20;1756205;80;21180;-41
2021/10/05 04:48:21;;;;;;;14.50;10.53;;;;;;;16.31;39.60;101054.41;1757515;79;21151;-41
2021/10/05 04:50:47;;;;;;;14.75;10.18;;;;;;;16.31;39.60;101056.20;1711156;78;21170;-41
2021/10/05 04:53:15;;;;;;;16.80;10.45;;;;;;;16.30;39.60;101051.33;1746257;80;21586;-41
2021/10/05 04:55:48;;;;;;;14.93;9.50;;;;;;;16.30;39.62;101057.97;1759530;80;22468;-40
2021/10/05 04:58:15;;;;;;;15.03;10.13;;;;;;;16.30;39.60;101061.09;1758835;80;21171;-40
2021/10/05 05:00:42;;;;;;;15.40;10.03;;;;;;;16.30;39.60;101071.25;1766739;79;20948;-40
2021/10/05 05:03:08;;;;;;;14.78;9.28;;;;;;;16.31;39.63;101075.66;1761722;78;22115;-41
2021/10/05 05:05:35;;;;;;;12.00;9.25;;;;;;;16.31;39.61;101070.34;1732324;80;20964;-41
2021/10/05 05:08:02;;;;;;;13.40;9.25;;;;;;;16.30;39.65;101081.88;1762856;79;21187;-41
2021/10/05 05:10:29;;;;;;;16.55;10.68;;;;;;;16.28;39.66;101078.41;1729950;80;21526;-40
2021/10/05 05:12:56;;;;;;;19.65;10.05;;;;;;;16.29;39.68;101085.47;1736592;80;21119;-41
2021/10/05 05:15:22;;;;;;;12.45;9.25;;;;;;;16.31;39.69;101083.63;1699017;82;21178;-41
2021/10/05 05:17:49;;;;;;;15.15;9.98;;;;;;;16.34;39.66;101086.19;1753876;79;21082;-41
2021/10/05 05:20:16;;;;;;;20.17;10.38;;;;;;;16.36;39.64;101083.48;1758230;80;21047;-41
2021/10/05 05:22:44;;;;;;;14.65;9.80;;;;;;;16.44;39.53;101080.55;1775775;80;21101;-41
2021/10/05 05:25:10;;;;;;;15.53;9.28;;;;;;;16.48;39.49;101088.84;1726559;81;20992;-41
2021/10/05 05:27:37;;;;;;;15.40;9.88;;;;;;;16.49;39.44;101089.22;1752025;80;21052;-40
2021/10/05 05:30:05;;;;;;;14.15;10.30;;;;;;;16.53;39.41;101086.89;1691321;82;21969;-41
2021/10/05 05:32:32;;;;;;;17.25;10.08;;;;;;;16.53;39.35;101094.86;1719548;79;21010;-41
2021/10/05 05:34:58;;;;;;;15.40;9.10;;;;;;;16.52;39.37;101100.64;1727453;81;21843;-41
2021/10/05 05:37:24;;;;;;;12.95;9.03;;;;;;;16.53;39.39;101105.48;1739013;80;20904;-41
2021/10/05 05:39:51;;;;;;;16.32;9.28;;;;;;;16.59;39.32;101106.59;1756499;79;21052;-41
2021/10/05 05:42:17;;;;;;;14.15;9.60;;;;;;;16.65;39.26;101106.39;1720405;81;21591;-41
2021/10/05 05:44:43;;;;;;;11.83;9.48;;;;;;;16.69;39.21;101109.36;1707039;81;21621;-40
2021/10/05 05:47:09;;;;;;;12.18;9.45;;;;;;;16.72;39.23;101107.91;1697949;81;21053;-40
2021/10/05 05:49:36;;;;;;;14.45;9.78;;;;;;;16.72;39.24;101110.56;1696542;81;21620;-41
2021/10/05 05:52:03;;;;;;;15.20;9.13;;;;;;;16.74;39.22;101114.97;1709845;81;21088;-41
2021/10/05 05:54:30;;;;;;;15.03;9.60;;;;;;;16.72;39.23;101117.20;1724936;80;21071;-40
2021/10/05 05:56:56;;;;;;;13.25;9.45;;;;;;;16.76;39.23;101117.10;1762385;79;21593;-41
2021/10/05 05:59:22;;;;;;;13.20;8.25;;;;;;;16.83;39.22;101117.32;1747473;79;21164;-40
2021/10/05 06:01:49;;;;;;;13.93;8.20;;;;;;;16.89;39.22;101117.12;1762888;78;21035;-41
2021/10/05 06:04:15;;;;;;;13.38;9.05;;;;;;;16.96;39.15;101119.09;1740298;79;21046;-40
2021/10/05 06:06:42;;;;;;;12.88;9.80;;;;;;;17.01;39.08;101118.47;1758623;79;21039;-41
2021/10/05 06:09:09;;;;;;;14.98;9.18;;;;;;;17.01;39.01;101121.13;1745412;80;21089;-41
2021/10/05 06:11:39;;;;;;;29.00;9.63;;;;;;;17.01;38.99;101128.67;1706698;81;21152;-41
2021/10/05 06:14:04;;;;;;;23.10;9.30;;;;;;;17.03;39.94;101129.91;1718189;81;20972;-41
2021/10/05 06:16:31;;;;;;;19.25;8.18;;;;;;;17.05;40.10;101131.61;1722067;78;21528;-41
2021/10/05 06:18:57;;;;;;;15.68;8.50;;;;;;;17.11;39.98;101130.52;1740347;80;20958;-41
2021/10/05 06:21:24;;;;;;;22.73;8.28;;;;;;;17.21;39.88;101136.38;1768674;79;21156;-41
2021/10/05 06:23:51;;;;;;;12.20;8.40;;;;;;;17.31;39.89;101127.59;1727692;80;21099;-42
2021/10/05 06:26:18;;;;;;;15.63;8.35;;;;;;;17.39;39.73;101130.38;1715900;80;21113;-41
2021/10/05 06:28:44;;;;;;;14.73;9.00;;;;;;;17.46;39.71;101138.52;1738875;79;21031;-40
2021/10/05 06:31:10;;;;;;;13.08;8.75;;;;;;;17.52;39.63;101134.79;1761312;80;21189;-41
2021/10/05 06:33:37;;;;;;;15.60;8.30;;;;;;;17.53;39.48;101136.50;1754501;80;21083;-41
2021/10/05 06:36:04;;;;;;;12.93;8.50;;;;;;;17.55;39.49;101140.00;1764486;80;22226;-41
2021/10/05 06:38:30;;;;;;;11.73;8.53;;;;;;;17.59;39.47;101138.09;1755715;79;21388;-41
2021/10/05 06:40:58;;;;;;;17.92;10.20;;;;;;;17.66;39.42;101142.72;1701590;81;21055;-41
2021/10/05 06:43:24;;;;;;;539.97;406.10;;;;;;;17.69;39.62;101135.95;1725254;80;21096;-40
2021/10/05 06:45:51;;;;;;;411.70;313.27;;;;;;;17.74;39.90;101134.83;1737688;79;21047;-42
2021/10/05 06:48:17;;;;;;;304.18;223.50;;;;;;;17.80;39.92;101143.92;1759970;80;21012;-41
2021/10/05 06:50:44;;;;;;;255.55;181.75;;;;;;;17.84;40.00;101142.00;1721115;80;21428;-42
2021/10/05 06:53:15;;;;;;;201.37;136.70;;;;;;;17.85;39.89;101141.05;1722836;80;21118;-41
2021/10/05 06:55:39;;;;;;;219.47;151.35;;;;;;;17.88;39.81;101140.98;1715864;80;21039;-42
2021/10/05 06:58:06;;;;;;;168.85;116.67;;;;;;;17.93;39.80;101148.80;1724366;80;21552;-41
2021/10/05 07:00:33;;;;;;;143.25;96.82;;;;;;;17.98;39.61;101145.48;1734992;79;21139;-43
2021/10/05 07:03:00;;;;;;;144.05;90.50;;;;;;;18.04;39.57;101149.25;1724314;80;21580;-41
2021/10/05 07:05:26;;;;;;;121.62;82.35;;;;;;;18.05;39.50;101148.30;1738751;80;21106;-42
2021/10/05 07:07:53;;;;;;;111.60;74.25;;;;;;;18.07;39.34;101145.58;1741512;80;21185;-42
2021/10/05 07:10:21;;;;;;;98.30;62.50;;;;;;;18.08;39.29;101158.84;1705929;81;21874;-42
2021/10/05 07:12:49;;;;;;;82.70;54.80;;;;;;;18.08;39.27;101148.18;1741038;81;21565;-41
2021/10/05 07:15:16;;;;;;;84.22;55.03;;;;;;;18.11;39.20;101152.06;1722626;80;20993;-42
2021/10/05 07:17:43;;;;;;;65.10;39.25;;;;;;;18.14;39.37;101153.72;1745372;79;21074;-43
2021/10/05 07:20:11;;;;;;;62.10;36.33;;;;;;;18.22;40.59;101157.42;1696724;81;21880;-42
2021/10/05 07:22:37;;;;;;;46.58;28.52;;;;;;;18.26;41.51;101157.72;1729754;80;21028;-42
2021/10/05 07:25:04;;;;;;;41.80;24.70;;;;;;;18.26;42.32;101155.91;1732838;80;21552;-43
2021/10/05 07:27:31;;;;;;;51.90;27.00;;;;;;;18.27;42.11;101160.28;1713191;80;21085;-42
2021/10/05 07:29:57;;;;;;;40.83;24.52;;;;;;;18.30;41.99;101163.31;1659377;83;21046;-42
2021/10/05 07:32:23;;;;;;;39.90;23.77;;;;;;;18.33;41.89;101161.38;1712048;81;21039;-42
2021/10/05 07:34:50;;;;;;;39.65;22.70;;;;;;;18.36;41.55;101157.27;1681803;82;21680;-41
2021/10/05 07:37:16;;;;;;;36.70;21.62;;;;;;;18.42;41.30;101164.61;1729984;81;21126;-42
2021/10/05 07:39:42;;;;;;;38.33;22.58;;;;;;;18.48;41.15;101169.22;1736183;80;21530;-43
2021/10/05 07:42:09;;;;;;;40.95;21.12;;;;;;;18.54;41.41;101170.31;1737712;80;21044;-43
2021/10/05 07:44:35;;;;;;;42.70;21.80;;;;;;;18.65;41.25;101171.66;1739507;80;21052;-42
2021/10/05 07:47:02;;;;;;;32.60;18.62;;;;;;;18.68;41.00;101177.72;1705719;81;20987;-43
2021/10/05 07:49:28;;;;;;;30.62;18.77;;;;;;;18.70;40.95;101175.00;1704040;81;21106;-43
2021/10/05 07:51:54;;;;;;;36.90;19.92;;;;;;;18.75;41.03;101174.34;1674736;82;21051;-42
2021/10/05 07:54:20;;;;;;;34.92;17.40;;;;;;;18.84;41.30;101177.11;1732939;80;21288;-42
2021/10/05 07:56:48;;;;;;;32.25;16.50;;;;;;;18.92;40.98;101177.17;1708244;81;21874;-42
2021/10/05 07:59:15;;;;;;;24.60;15.00;;;;;;;18.97;40.56;101178.31;1718780;80;21110;-42
2021/10/05 08:01:48;;;;;;;31.52;16.95;;;;;;;18.98;40.28;101172.06;1740739;80;21695;-42
2021/10/05 08:04:10;;;;;;;20.75;14.18;;;;;;;18.99;40.07;101171.11;1710119;81;21586;-42
2021/10/05 08:06:37;;;;;;;23.30;14.38;;;;;;;18.97;39.53;101168.13;1727441;81;21043;-44
2021/10/05 08:09:03;;;;;;;23.22;14.43;;;;;;;18.93;39.74;101174.92;1705965;81;21055;-42
2021/10/05 08:11:30;;;;;;;28.20;15.35;;;;;;;18.97;40.12;101180.98;1735877;80;21137;-43
2021/10/05 08:13:57;;;;;;;24.50;14.98;;;;;;;19.05;40.46;101178.00;1717715;80;22263;-43
2021/10/05 08:16:30;;;;;;;21.50;13.72;;;;;;;19.11;40.40;101173.27;1740497;79;20995;-45
2021/10/05 08:18:52;;;;;;;24.77;14.58;;;;;;;19.17;40.10;101176.59;1730752;80;21530;-42
2021/10/05 08:21:19;;;;;;;29.55;14.33;;;;;;;19.19;40.25;101172.91;1735099;80;21049;-45
2021/10/05 08:23:45;;;;;;;23.45;13.28;;;;;;;19.24;40.18;101176.23;1726796;80;21676;-43
2021/10/05 08:26:12;;;;;;;26.48;13.98;;;;;;;19.27;40.25;101177.92;1706306;79;21048;-43
2021/10/05 08:28:39;;;;;;;27.25;13.55;;;;;;;19.33;40.32;101175.43;1734619;79;21551;-43
2021/10/05 08:31:05;;;;;;;20.95;12.78;;;;;;;19.39;40.72;101168.50;1729526;79;21022;-43
2021/10/05 08:33:32;;;;;;;25.17;13.70;;;;;;;19.46;40.80;101169.94;1697824;81;21054;-42
2021/10/05 08:35:59;;;;;;;28.45;14.73;;;;;;;19.50;41.12;101160.84;1725352;81;21012;-43
2021/10/05 08:38:25;;;;;;;20.48;14.20;;;;;;;19.58;41.43;101164.03;1723866;80;21872;-42
2021/10/05 08:40:51;;;;;;;25.90;14.43;;;;;;;19.66;41.52;101161.88;1728727;80;21036;-43
2021/10/05 08:43:21;;;;;;;23.27;13.55;;;;;;;19.71;40.80;101160.81;1713237;81;21172;-42
2021/10/05 08:45:47;;;;;;;21.95;13.10;;;;;;;19.72;40.50;101170.54;1709974;81;21067;-42
2021/10/05 08:48:15;;;;;;;21.55;12.58;;;;;;;19.71;40.29;101164.34;1748859;79;21532;-42
2021/10/05 08:50:42;;;;;;;20.65;12.68;;;;;;;19.70;40.04;101167.08;1745775;79;21128;-42
2021/10/05 08:53:09;;;;;;;20.17;12.53;;;;;;;19.71;40.52;101172.83;1729884;80;21250;-44
2021/10/05 08:55:37;;;;;;;19.15;12.35;;;;;;;19.73;40.00;101169.14;1737943;79;21115;-42
2021/10/05 08:58:04;;;;;;;22.27;11.22;;;;;;;19.69;40.25;101167.56;1726215;80;21043;-42
2021/10/05 09:00:31;;;;;;;19.82;12.58;;;;;;;19.68;40.47;101173.34;1699831;81;20998;-42
2021/10/05 09:02:57;;;;;;;22.48;11.85;;;;;;;19.70;40.66;101165.75;1745504;79;21106;-43
2021/10/05 09:05:25;;;;;;;19.42;12.05;;;;;;;19.74;40.67;101163.35;1749348;80;21007;-42
2021/10/05 09:07:52;;;;;;;22.52;12.20;;;;;;;19.74;40.05;101168.69;1746889;80;21050;-43
2021/10/05 09:10:23;;;;;;;18.05;11.75;;;;;;;19.71;40.64;101172.83;1731807;80;21159;-43
2021/10/05 09:12:49;;;;;;;22.80;11.48;;;;;;;19.72;40.04;101173.21;1735318;80;21287;-42
2021/10/05 09:15:18;;;;;;;23.42;11.78;;;;;;;19.71;40.48;101174.17;1724738;80;21902;-42
2021/10/05 09:17:56;;;;;;;20.65;10.53;;;;;;;19.74;40.24;101166.88;1712317;80;21048;-42
2021/10/05 09:20:31;;;;;;;14.25;10.35;;;;;;;19.76;40.44;101175.70;1735016;79;20992;-42
2021/10/05 09:23:05;;;;;;;15.23;9.95;;;;;;;19.82;40.55;101175.87;1706131;80;21854;-42
2021/10/05 09:25:43;;;;;;;14.78;10.50;;;;;;;19.88;40.56;101180.95;1713821;80;20968;-42
2021/10/05 09:28:23;;;;;;;15.83;10.50;;;;;;;19.96;41.22;101177.45;1719029;79;22258;-42
2021/10/05 09:31:06;;;;;;;17.07;10.08;;;;;;;20.03;40.97;101173.53;1719487;79;21077;-43
2021/10/05 09:33:35;;;;;;;14.35;9.80;;;;;;;20.09;41.09;101168.84;1712913;81;21046;-43
2021/10/05 09:36:02;;;;;;;15.68;10.10;;;;;;;20.16;41.49;101161.80;1725000;80;21023;-42
2021/10/05 09:38:29;;;;;;;18.30;10.93;;;;;;;20.22;41.78;101164.63;1741846;80;21560;-43
2021/10/05 09:41:07;;;;;;;21.52;10.13;;;;;;;20.29;41.68;101162.53;1741441;79;21386;-42
2021/10/05 09:43:34;;;;;;;18.92;9.60;;;;;;;20.35;41.60;101160.42;1742842;79;20987;-42
2021/10/05 09:46:13;;;;;;;14.63;9.53;;;;;;;20.40;41.05;101161.06;1758328;79;21067;-41
2021/10/05 09:48:40;;;;;;;22.27;9.58;;;;;;;20.45;41.52;101159.98;1683193;82;21012;-42
2021/10/05 09:51:18;;;;;;;15.10;9.53;;;;;;;20.53;40.92;101161.33;1688472;81;21225;-42
2021/10/05 09:53:45;;;;;;;19.02;9.45;;;;;;;20.57;40.54;101162.03;1714914;81;21083;-41
2021/10/05 09:56:13;;;;;;;15.55;8.90;;;;;;;20.59;40.29;101167.72;1736168;80;20848;-42
2021/10/05 09:58:39;;;;;;;14.75;9.30;;;;;;;20.64;40.48;101165.30;1757692;79;21096;-42
2021/10/05 10:01:06;;;;;;;21.80;9.53;;;;;;;20.67;39.91;101161.14;1702681;82;21039;-42
2021/10/05 10:03:33;;;;;;;16.75;8.68;;;;;;;20.68;39.63;101157.05;1708334;79;21589;-41
2021/10/05 10:05:59;;;;;;;11.78;7.85;;;;;;;20.70;39.40;101154.30;1731951;80;21179;-41
2021/10/05 10:08:27;;;;;;;13.22;8.15;;;;;;;20.72;39.12;101155.94;1725944;80;22560;-41
2021/10/05 10:10:54;;;;;;;14.93;8.18;;;;;;;20.72;38.02;101156.42;1765515;78;21111;-41
2021/10/05 10:13:20;;;;;;;14.35;7.55;;;;;;;20.67;37.67;101153.97;1711053;81;21096;-42
2021/10/05 10:15:48;;;;;;;14.65;7.50;;;;;;;20.64;38.27;101159.47;1720350;81;21070;-41
2021/10/05 10:18:19;;;;;;;14.28;6.90;;;;;;;20.65;38.22;101160.36;1725872;80;23315;-42
2021/10/05 10:20:54;;;;;;;14.55;7.60;;;;;;;20.67;38.17;101152.63;1723017;80;21047;-42
2021/10/05 10:23:22;;;;;;;17.25;7.78;;;;;;;20.69;38.17;101149.40;1734815;80;21633;-41
2021/10/05 10:25:54;;;;;;;12.20;7.37;;;;;;;20.74;39.04;101143.34;1718014;80;21047;-40
2021/10/05 10:28:28;;;;;;;12.53;6.97;;;;;;;20.81;39.21;101136.35;1746004;78;21034;-42
2021/10/05 10:30:57;;;;;;;11.30;7.03;;;;;;;20.88;38.93;101133.73;1719787;80;21570;-41
2021/10/05 10:33:24;;;;;;;9.78;6.72;;;;;;;20.93;38.29;101127.67;1736567;80;20970;-42
2021/10/05 10:35:56;;;;;;;11.30;6.45;;;;;;;20.98;38.37;101129.67;1655913;83;21218;-41
2021/10/05 10:38:28;;;;;;;10.95;7.08;;;;;;;21.01;37.69;101126.80;1695750;81;20994;-41
2021/10/05 10:40:56;;;;;;;10.95;6.33;;;;;;;21.04;37.53;101118.63;1685537;82;21004;-41
2021/10/05 10:43:26;;;;;;;10.58;6.37;;;;;;;21.07;38.23;101110.92;1731400;79;21147;-42
2021/10/05 10:45:58;;;;;;;12.23;5.83;;;;;;;21.12;38.59;101113.73;1715353;79;21114;-42
2021/10/05 10:48:31;;;;;;;14.85;6.90;;;;;;;21.18;38.73;101110.33;1739901;80;20997;-41
2021/10/05 10:51:01;;;;;;;11.03;6.80;;;;;;;21.23;38.62;101125.67;1695145;81;22105;-41
2021/10/05 10:53:36;;;;;;;15.20;6.83;;;;;;;21.28;38.65;101115.58;1686450;82;21040;-41
2021/10/05 10:56:02;;;;;;;12.18;6.30;;;;;;;21.34;38.67;101111.24;1704027;82;22161;-42
2021/10/05 10:58:40;;;;;;;9.95;6.35;;;;;;;21.38;38.44;101107.44;1742302;80;20971;-41
2021/10/05 11:01:08;;;;;;;12.35;5.90;;;;;;;21.43;37.88;101104.03;1709037;80;21043;-41
2021/10/05 11:03:34;;;;;;;14.75;5.95;;;;;;;21.41;35.39;101099.24;1730860;80;21095;-41
2021/10/05 11:06:02;;;;;;;7.85;5.50;;;;;;;21.34;35.76;101103.21;1727672;79;21610;-42
2021/10/05 11:08:28;;;;;;;13.35;6.20;;;;;;;21.33;36.14;101098.79;1689591;83;21158;-41
2021/10/05 11:11:02;;;;;;;7.80;5.37;;;;;;;21.35;37.25;101099.59;1731118;80;20873;-43
2021/10/05 11:13:29;;;;;;;9.10;5.73;;;;;;;21.42;36.58;101106.82;1691639;81;21807;-43
2021/10/05 11:15:55;;;;;;;6.00;5.42;;;;;;;21.45;36.98;101098.14;1714231;81;21098;-42
2021/10/05 11:18:26;;;;;;;9.40;5.33;;;;;;;21.49;36.44;101098.38;1720923;79;21148;-43